Time;durP1;ratioP1;P1;durP2;ratioP2;P2;SDS_P1;SDS_P2;PMS_P1;PMS_P2;Temp;Humidity;BMP_temperature;BMP_pressure;BME280_temperature;BME280_humidity;BME280_pressure;Samples;Min_cycle;Max_cycle;Signal;HPM_P1;HPM_P2
2023/03/07 00:01:59;;;;;;;;;;;4.10;99.90;;;;;;5022218;28;19948;-86
2023/03/07 00:04:24;;;;;;;;;;;4.10;99.90;;;;;;5006265;28;19926;-86
2023/03/07 00:06:50;;;;;;;;;;;6.20;99.90;;;;;;5026993;28;19925;-86
2023/03/07 00:09:16;;;;;;;;;;;5.40;99.90;;;;;;5004878;28;20377;-86
2023/03/07 00:11:41;;;;;;;;;;;4.00;99.90;;;;;;5024021;28;19930;-86
2023/03/07 00:14:07;;;;;;;;;;;5.90;99.90;;;;;;5025396;28;19925;-86
2023/03/07 00:16:33;;;;;;;;;;;4.10;99.90;;;;;;5003895;28;19980;-86
2023/03/07 00:18:59;;;;;;;;;;;4.10;99.90;;;;;;5004910;28;19925;-86
2023/03/07 00:21:30;;;;;;;;;;;6.40;99.90;;;;;;5021814;28;19952;-85
2023/03/07 00:23:55;;;;;;;;;;;6.00;99.90;;;;;;5020397;28;19933;-86
2023/03/07 00:26:22;;;;;;;;;;;4.10;99.90;;;;;;5022603;28;19932;-85
2023/03/07 00:28:49;;;;;;;;;;;5.70;99.90;;;;;;5025071;28;19926;-86
2023/03/07 00:31:15;;;;;;;;;;;4.70;99.90;;;;;;5022759;28;19957;-86
2023/03/07 00:33:40;;;;;;;;;;;4.10;99.90;;;;;;5023738;28;20324;-85
2023/03/07 00:36:08;;;;;;;;;;;5.80;99.90;;;;;;5025206;28;19921;-85
2023/03/07 00:38:34;;;;;;;;;;;4.20;99.90;;;;;;5017643;28;20292;-85
2023/03/07 00:41:03;;;;;;;;;;;5.20;99.90;;;;;;5025533;28;19925;-86
2023/03/07 00:43:29;;;;;;;;;;;4.10;99.90;;;;;;5004331;28;19925;-86
2023/03/07 00:45:55;;;;;;;;;;;4.10;99.90;;;;;;5007300;28;19931;-86
2023/03/07 00:48:21;;;;;;;;;;;4.00;99.90;;;;;;4994733;28;20020;-86
2023/03/07 00:50:46;;;;;;;;;;;6.60;99.90;;;;;;5024529;28;19925;-85
2023/03/07 00:53:12;;;;;;;;;;;4.10;99.90;;;;;;5003417;28;19988;-85
2023/03/07 00:55:38;;;;;;;;;;;4.10;99.90;;;;;;5002089;28;19932;-86
2023/03/07 00:58:03;;;;;;;;;;;6.20;99.90;;;;;;5008212;28;19947;-86
2023/03/07 01:00:29;;;;;;;;;;;4.30;99.90;;;;;;5003886;28;19925;-85
2023/03/07 01:02:56;;;;;;;;;;;4.00;99.90;;;;;;5015363;28;19932;-86
2023/03/07 01:05:22;;;;;;;;;;;6.40;99.90;;;;;;5004697;28;19932;-85
2023/03/07 01:07:47;;;;;;;;;;;4.00;99.90;;;;;;4999972;28;19925;-86
2023/03/07 01:10:13;;;;;;;;;;;3.80;99.90;;;;;;5024984;28;19936;-85
2023/03/07 01:12:38;;;;;;;;;;;4.20;99.90;;;;;;5003718;28;19984;-85
2023/03/07 01:15:05;;;;;;;;;;;5.40;99.90;;;;;;5023802;28;19921;-85
2023/03/07 01:17:32;;;;;;;;;;;3.60;99.90;;;;;;5005482;28;19933;-85
2023/03/07 01:19:57;;;;;;;;;;;3.60;99.90;;;;;;5021723;28;19948;-85
2023/03/07 01:22:23;;;;;;;;;;;4.60;99.90;;;;;;5006657;28;20373;-85
2023/03/07 01:24:48;;;;;;;;;;;4.10;99.90;;;;;;5021304;28;19925;-85
2023/03/07 01:27:14;;;;;;;;;;;3.50;99.90;;;;;;5016386;28;19926;-85
2023/03/07 01:29:39;;;;;;;;;;;3.60;99.90;;;;;;5021304;28;19932;-86
2023/03/07 01:32:05;;;;;;;;;;;5.60;99.90;;;;;;5006484;28;19925;-86
2023/03/07 01:34:30;;;;;;;;;;;6.30;99.90;;;;;;5004296;28;19925;-84
2023/03/07 01:36:56;;;;;;;;;;;3.60;99.90;;;;;;5001219;28;20427;-85
2023/03/07 01:39:22;;;;;;;;;;;4.60;99.90;;;;;;5006157;28;19951;-85
2023/03/07 01:41:47;;;;;;;;;;;4.40;99.90;;;;;;5020681;28;20022;-85
2023/03/07 01:44:14;;;;;;;;;;;5.60;99.90;;;;;;5025045;28;19936;-85
2023/03/07 01:46:45;;;;;;;;;;;4.70;99.90;;;;;;5018339;28;19930;-85
2023/03/07 01:49:22;;;;;;;;;;;3.80;99.90;;;;;;5016188;28;19925;-86
2023/03/07 01:51:50;;;;;;;;;;;3.80;99.90;;;;;;5019576;28;19932;-86
2023/03/07 01:54:16;;;;;;;;;;;6.30;99.90;;;;;;5003276;28;20288;-86
2023/03/07 01:56:42;;;;;;;;;;;3.90;99.90;;;;;;5006313;28;19925;-86
2023/03/07 01:59:08;;;;;;;;;;;3.80;99.90;;;;;;5014329;28;19928;-86
2023/03/07 02:01:35;;;;;;;;;;;4.00;99.90;;;;;;5020048;28;19925;-86
2023/03/07 02:04:20;;;;;;;;;;;4.90;99.90;;;;;;5023593;28;20273;-86
2023/03/07 02:06:45;;;;;;;;;;;3.80;99.90;;;;;;4990356;28;19925;-86
2023/03/07 02:09:14;;;;;;;;;;;3.70;99.90;;;;;;5005744;28;19925;-85
2023/03/07 02:11:44;;;;;;;;;;;6.00;99.90;;;;;;5003093;28;19925;-86
2023/03/07 02:14:09;;;;;;;;;;;3.60;99.90;;;;;;5017190;28;20396;-85
2023/03/07 02:16:36;;;;;;;;;;;5.10;99.90;;;;;;5023491;28;19980;-85
2023/03/07 02:19:07;;;;;;;;;;;3.40;99.90;;;;;;5004933;28;20331;-85
2023/03/07 02:21:51;;;;;;;;;;;4.30;99.90;;;;;;5020451;28;19925;-85
2023/03/07 02:24:20;;;;;;;;;;;3.40;99.90;;;;;;5003029;28;19949;-85
2023/03/07 02:26:46;;;;;;;;;;;3.30;99.90;;;;;;5022931;28;19925;-85
2023/03/07 02:29:12;;;;;;;;;;;6.00;99.90;;;;;;5021648;28;19925;-85
2023/03/07 02:31:37;;;;;;;;;;;3.30;99.90;;;;;;5023312;28;19929;-86
2023/03/07 02:34:15;;;;;;;;;;;3.30;99.90;;;;;;5021047;28;20262;-86
2023/03/07 02:36:41;;;;;;;;;;;3.30;99.90;;;;;;4999390;28;19932;-85
2023/03/07 02:39:07;;;;;;;;;;;6.00;99.90;;;;;;5006336;28;19929;-85
2023/03/07 02:41:33;;;;;;;;;;;4.10;99.90;;;;;;5016035;28;19925;-85
2023/03/07 02:43:59;;;;;;;;;;;3.40;99.90;;;;;;5018060;28;20402;-86
2023/03/07 02:46:24;;;;;;;;;;;3.20;99.90;;;;;;5002874;28;20044;-85
2023/03/07 02:48:50;;;;;;;;;;;3.30;99.90;;;;;;5005041;28;20032;-85
2023/03/07 02:51:15;;;;;;;;;;;5.60;99.90;;;;;;5003825;28;19971;-85
2023/03/07 02:53:41;;;;;;;;;;;5.10;99.90;;;;;;5019895;28;19982;-87
2023/03/07 02:56:06;;;;;;;;;;;5.10;99.90;;;;;;5020951;28;20407;-86
2023/03/07 02:58:32;;;;;;;;;;;3.30;99.90;;;;;;5006008;28;19925;-85
2023/03/07 03:00:58;;;;;;;;;;;3.20;99.90;;;;;;5023259;28;19980;-85
2023/03/07 03:03:23;;;;;;;;;;;3.20;99.90;;;;;;5004369;28;19979;-85
2023/03/07 03:05:49;;;;;;;;;;;3.10;99.90;;;;;;5013833;28;20020;-85
2023/03/07 03:08:14;;;;;;;;;;;3.20;99.90;;;;;;5025580;28;19935;-85
2023/03/07 03:10:40;;;;;;;;;;;3.10;99.90;;;;;;5024042;28;19951;-84
2023/03/07 03:13:06;;;;;;;;;;;3.10;99.90;;;;;;5024738;28;19925;-85
2023/03/07 03:15:34;;;;;;;;;;;3.20;99.90;;;;;;5027875;28;19921;-84
2023/03/07 03:18:01;;;;;;;;;;;3.10;99.90;;;;;;5006802;28;19932;-85
2023/03/07 03:20:26;;;;;;;;;;;3.90;99.90;;;;;;5025114;28;20285;-85
2023/03/07 03:22:52;;;;;;;;;;;3.80;99.90;;;;;;5023414;28;19933;-85
2023/03/07 03:25:21;;;;;;;;;;;3.00;99.90;;;;;;5026265;28;19925;-84
2023/03/07 03:27:46;;;;;;;;;;;3.00;99.90;;;;;;5026252;28;19932;-85
2023/03/07 03:30:12;;;;;;;;;;;3.00;99.90;;;;;;5007773;28;19925;-85
2023/03/07 03:32:38;;;;;;;;;;;3.00;99.90;;;;;;5007027;28;20323;-84
2023/03/07 03:35:04;;;;;;;;;;;4.70;99.90;;;;;;5006315;28;19921;-85
2023/03/07 03:37:30;;;;;;;;;;;3.00;99.90;;;;;;5008152;28;20018;-85
2023/03/07 03:39:56;;;;;;;;;;;3.00;99.90;;;;;;5001407;28;20028;-84
2023/03/07 03:42:21;;;;;;;;;;;3.00;99.90;;;;;;5019533;28;20348;-85
2023/03/07 03:44:47;;;;;;;;;;;3.00;99.90;;;;;;5026408;28;20337;-85
2023/03/07 03:47:13;;;;;;;;;;;5.60;99.90;;;;;;5025874;28;19932;-85
2023/03/07 03:49:38;;;;;;;;;;;5.20;99.90;;;;;;5026274;28;19952;-85
2023/03/07 03:52:04;;;;;;;;;;;3.20;99.90;;;;;;5007618;28;19933;-85
2023/03/07 03:54:29;;;;;;;;;;;4.90;99.90;;;;;;5004969;28;20369;-86
2023/03/07 03:56:55;;;;;;;;;;;3.30;99.90;;;;;;5009174;28;20298;-86
2023/03/07 03:59:21;;;;;;;;;;;3.30;99.90;;;;;;5009051;28;20337;-87
2023/03/07 04:01:46;;;;;;;;;;;3.20;99.90;;;;;;5005501;28;20502;-86
2023/03/07 04:04:12;;;;;;;;;;;3.20;99.90;;;;;;5025727;28;19940;-86
2023/03/07 04:06:38;;;;;;;;;;;5.30;99.90;;;;;;5006109;28;20305;-86
2023/03/07 04:09:04;;;;;;;;;;;5.50;99.90;;;;;;5022541;28;19925;-86
2023/03/07 04:11:30;;;;;;;;;;;4.20;99.90;;;;;;5005222;28;20272;-86
2023/03/07 04:13:55;;;;;;;;;;;3.10;99.90;;;;;;5006256;28;20004;-85
2023/03/07 04:16:24;;;;;;;;;;;3.10;99.90;;;;;;5025364;28;19979;-85
2023/03/07 04:18:50;;;;;;;;;;;3.00;99.90;;;;;;5005215;28;20369;-85
2023/03/07 04:21:15;;;;;;;;;;;3.10;99.90;;;;;;4996958;28;19925;-86
2023/03/07 04:23:41;;;;;;;;;;;3.10;99.90;;;;;;5007197;28;19925;-86
2023/03/07 04:26:07;;;;;;;;;;;3.20;99.90;;;;;;5005758;28;20451;-85
2023/03/07 04:28:42;;;;;;;;;;;3.20;99.90;;;;;;5028438;28;19925;-86
2023/03/07 04:31:08;;;;;;;;;;;3.20;99.90;;;;;;5022720;28;19975;-86
2023/03/07 04:33:33;;;;;;;;;;;5.80;99.90;;;;;;5008450;28;20011;-85
2023/03/07 04:35:59;;;;;;;;;;;3.20;99.90;;;;;;5004673;28;19972;-85
2023/03/07 04:38:24;;;;;;;;;;;3.20;99.90;;;;;;5004068;28;20295;-86
2023/03/07 04:40:50;;;;;;;;;;;3.10;99.90;;;;;;5009034;28;19926;-86
2023/03/07 04:43:15;;;;;;;;;;;5.20;99.90;;;;;;5003586;28;19925;-86
2023/03/07 04:45:41;;;;;;;;;;;2.90;99.90;;;;;;5002008;28;20329;-86
2023/03/07 04:48:07;;;;;;;;;;;5.20;99.90;;;;;;5025001;28;19936;-85
2023/03/07 04:50:32;;;;;;;;;;;3.20;99.90;;;;;;5022277;28;20047;-86
2023/03/07 04:52:58;;;;;;;;;;;3.20;99.90;;;;;;5006103;28;19926;-86
2023/03/07 04:55:23;;;;;;;;;;;4.30;99.90;;;;;;5027062;28;19925;-86
2023/03/07 04:57:50;;;;;;;;;;;3.30;99.90;;;;;;5003540;28;19929;-85
2023/03/07 05:00:16;;;;;;;;;;;3.40;99.90;;;;;;5015797;28;19925;-86
2023/03/07 05:02:47;;;;;;;;;;;3.40;99.90;;;;;;5020917;28;20306;-85
2023/03/07 05:05:12;;;;;;;;;;;3.20;99.90;;;;;;4998872;28;19926;-86
2023/03/07 05:07:38;;;;;;;;;;;3.40;99.90;;;;;;5007306;28;20027;-86
2023/03/07 05:10:04;;;;;;;;;;;3.30;99.90;;;;;;5022187;28;19925;-86
2023/03/07 05:12:29;;;;;;;;;;;3.20;99.90;;;;;;5022678;28;19977;-86
2023/03/07 05:14:55;;;;;;;;;;;3.20;99.90;;;;;;5021156;28;19925;-86
2023/03/07 05:17:20;;;;;;;;;;;3.20;99.90;;;;;;5026531;28;19929;-86
2023/03/07 05:19:46;;;;;;;;;;;3.80;99.90;;;;;;5005728;28;19948;-85
2023/03/07 05:22:11;;;;;;;;;;;3.10;99.90;;;;;;5007923;28;19925;-86
2023/03/07 05:24:37;;;;;;;;;;;5.40;99.90;;;;;;5006332;28;19929;-86
2023/03/07 05:27:02;;;;;;;;;;;3.20;99.90;;;;;;5003408;28;20403;-86
2023/03/07 05:29:28;;;;;;;;;;;3.20;99.90;;;;;;5007814;28;20087;-86
2023/03/07 05:31:53;;;;;;;;;;;3.20;99.90;;;;;;5005530;28;20391;-86
2023/03/07 05:34:19;;;;;;;;;;;4.80;99.90;;;;;;5020417;28;19925;-85
2023/03/07 05:36:45;;;;;;;;;;;3.20;99.90;;;;;;5021049;28;19921;-86
2023/03/07 05:39:10;;;;;;;;;;;3.20;99.90;;;;;;5000704;28;19931;-86
2023/03/07 05:41:36;;;;;;;;;;;3.20;99.90;;;;;;5017022;28;19925;-87
2023/03/07 05:44:02;;;;;;;;;;;3.20;99.90;;;;;;5017304;28;19930;-87
2023/03/07 05:46:27;;;;;;;;;;;3.20;99.90;;;;;;5007476;28;19952;-84
2023/03/07 05:48:54;;;;;;;;;;;3.20;99.90;;;;;;5024087;28;20388;-83
2023/03/07 05:51:19;;;;;;;;;;;5.20;99.90;;;;;;5011245;28;19932;-87
2023/03/07 05:53:45;;;;;;;;;;;4.80;99.90;;;;;;5018192;28;19925;-83
2023/03/07 05:56:11;;;;;;;;;;;5.40;99.90;;;;;;5012470;28;19929;-83
2023/03/07 05:58:36;;;;;;;;;;;4.50;99.90;;;;;;5015469;28;19933;-80
2023/03/07 06:01:02;;;;;;;;;;;5.30;99.90;;;;;;5012508;28;19936;-81
2023/03/07 06:03:28;;;;;;;;;;;2.70;99.90;;;;;;5020733;28;19926;-77
2023/03/07 06:05:54;;;;;;;;;;;2.60;99.90;;;;;;5020915;28;20374;-76
2023/03/07 06:08:19;;;;;;;;;;;2.60;99.90;;;;;;5004236;28;19925;-78
2023/03/07 06:10:48;;;;;;;;;;;2.60;99.90;;;;;;5008691;28;20022;-80
2023/03/07 06:13:16;;;;;;;;;;;2.50;99.90;;;;;;5004847;28;19926;-85
2023/03/07 06:15:42;;;;;;;;;;;2.50;99.90;;;;;;5009988;28;19921;-79
2023/03/07 06:18:08;;;;;;;;;;;4.60;99.90;;;;;;5021421;28;19937;-81
2023/03/07 06:20:33;;;;;;;;;;;2.40;99.90;;;;;;5019477;28;19921;-80
2023/03/07 06:22:59;;;;;;;;;;;4.40;99.90;;;;;;5008193;28;19932;-83
2023/03/07 06:25:25;;;;;;;;;;;5.20;99.90;;;;;;5015494;28;19948;-79
2023/03/07 06:27:50;;;;;;;;;;;2.40;99.90;;;;;;5003883;28;20430;-81
2023/03/07 06:30:16;;;;;;;;;;;2.40;99.90;;;;;;5002229;28;19925;-88
2023/03/07 06:32:44;;;;;;;;;;;2.40;99.90;;;;;;5021948;28;20297;-81
2023/03/07 06:35:10;;;;;;;;;;;2.50;99.90;;;;;;5022586;28;19928;-80
2023/03/07 06:37:35;;;;;;;;;;;4.70;99.90;;;;;;5005837;28;19925;-76
2023/03/07 06:40:05;;;;;;;;;;;2.60;99.90;;;;;;5009375;28;19926;-89
2023/03/07 06:42:30;;;;;;;;;;;3.50;99.90;;;;;;5021212;28;19934;-81
2023/03/07 06:44:56;;;;;;;;;;;2.60;99.90;;;;;;5025296;28;19925;-80
2023/03/07 06:47:21;;;;;;;;;;;4.80;99.90;;;;;;5006063;28;19932;-80
2023/03/07 06:49:47;;;;;;;;;;;2.50;99.90;;;;;;5007869;28;19936;-82
2023/03/07 06:52:12;;;;;;;;;;;3.30;99.90;;;;;;5024182;28;19925;-88
2023/03/07 06:54:38;;;;;;;;;;;2.50;99.90;;;;;;5002176;28;20389;-88
2023/03/07 06:57:03;;;;;;;;;;;2.50;99.90;;;;;;5025902;28;19925;-90
2023/03/07 06:59:29;;;;;;;;;;;2.50;99.90;;;;;;5022428;28;19933;-86
2023/03/07 07:01:54;;;;;;;;;;;2.50;99.90;;;;;;5009126;28;19925;-86
2023/03/07 07:04:20;;;;;;;;;;;2.50;99.90;;;;;;5025236;28;19925;-86
2023/03/07 07:06:45;;;;;;;;;;;4.70;99.90;;;;;;5023236;28;19929;-86
2023/03/07 07:09:12;;;;;;;;;;;4.30;99.90;;;;;;5021208;28;19939;-85
2023/03/07 07:11:41;;;;;;;;;;;2.50;99.90;;;;;;5022561;28;19925;-86
2023/03/07 07:14:06;;;;;;;;;;;4.60;99.90;;;;;;5008672;28;20455;-86
2023/03/07 07:16:34;;;;;;;;;;;2.50;99.90;;;;;;5010585;28;19983;-85
2023/03/07 07:19:00;;;;;;;;;;;2.60;99.90;;;;;;5022057;28;20384;-87
2023/03/07 07:21:26;;;;;;;;;;;2.60;99.90;;;;;;5006684;28;19956;-85
2023/03/07 07:23:51;;;;;;;;;;;2.60;99.90;;;;;;5027469;28;20016;-86
2023/03/07 07:26:17;;;;;;;;;;;2.60;99.90;;;;;;5005271;28;19929;-86
2023/03/07 07:28:42;;;;;;;;;;;4.90;99.90;;;;;;5017276;28;19929;-86
2023/03/07 07:31:08;;;;;;;;;;;2.70;99.90;;;;;;5025411;28;20020;-86
2023/03/07 07:33:34;;;;;;;;;;;2.70;99.90;;;;;;5025052;28;20389;-86
2023/03/07 07:35:59;;;;;;;;;;;2.80;99.90;;;;;;5003476;28;20059;-86
2023/03/07 07:38:25;;;;;;;;;;;5.30;99.90;;;;;;5026051;28;19922;-86
2023/03/07 07:40:50;;;;;;;;;;;5.40;99.90;;;;;;5026665;28;19931;-85
2023/03/07 07:43:16;;;;;;;;;;;2.90;99.90;;;;;;5024041;28;19968;-86
2023/03/07 07:45:42;;;;;;;;;;;5.30;99.90;;;;;;5009241;28;19947;-76
2023/03/07 07:48:08;;;;;;;;;;;3.00;99.90;;;;;;5030647;28;19929;-86
2023/03/07 07:50:33;;;;;;;;;;;3.30;99.90;;;;;;5023649;28;20007;-88
2023/03/07 07:52:59;;;;;;;;;;;3.00;99.90;;;;;;5025235;28;19961;-90
2023/03/07 07:55:27;;;;;;;;;;;3.10;99.90;;;;;;5025655;28;20017;-91
2023/03/07 07:57:53;;;;;;;;;;;3.20;99.90;;;;;;5014547;28;19926;-80
2023/03/07 08:00:20;;;;;;;;;;;3.30;99.90;;;;;;5006491;28;19929;-78
2023/03/07 08:02:49;;;;;;;;;;;3.40;99.90;;;;;;5020289;28;20347;-86
2023/03/07 08:05:15;;;;;;;;;;;3.40;99.90;;;;;;5005717;28;19926;-84
2023/03/07 08:07:41;;;;;;;;;;;4.60;99.90;;;;;;5007608;28;19933;-84
2023/03/07 08:10:10;;;;;;;;;;;3.50;99.90;;;;;;5004915;28;19926;-84
2023/03/07 08:12:36;;;;;;;;;;;3.40;99.90;;;;;;5008572;28;19948;-83
2023/03/07 08:15:02;;;;;;;;;;;5.00;99.90;;;;;;5004544;28;19925;-83
2023/03/07 08:17:28;;;;;;;;;;;3.00;99.90;;;;;;5004403;28;19929;-83
2023/03/07 08:19:53;;;;;;;;;;;3.00;99.90;;;;;;5009606;28;19929;-82
2023/03/07 08:22:19;;;;;;;;;;;5.30;99.90;;;;;;5025569;28;20423;-82
2023/03/07 08:24:45;;;;;;;;;;;3.10;99.90;;;;;;5019165;28;20328;-86
2023/03/07 08:27:10;;;;;;;;;;;5.20;99.90;;;;;;4996806;28;19933;-91
2023/03/07 08:29:36;;;;;;;;;;;4.40;99.90;;;;;;5015732;28;19925;-91
2023/03/07 08:32:01;;;;;;;;;;;4.10;99.90;;;;;;5027905;28;19925;-93
2023/03/07 08:34:27;;;;;;;;;;;2.60;99.90;;;;;;5031278;28;19929;-90
2023/03/07 08:36:53;;;;;;;;;;;2.50;99.90;;;;;;5027855;28;20016;-88
2023/03/07 08:39:18;;;;;;;;;;;2.60;99.90;;;;;;5021160;28;19925;-88
2023/03/07 08:41:44;;;;;;;;;;;2.60;99.90;;;;;;4996920;28;19976;-91
2023/03/07 08:44:09;;;;;;;;;;;5.00;99.90;;;;;;4994246;28;19925;-85
2023/03/07 08:46:35;;;;;;;;;;;2.80;99.90;;;;;;5022032;28;19979;-82
2023/03/07 08:49:00;;;;;;;;;;;2.80;99.90;;;;;;5018988;28;20297;-88
2023/03/07 08:51:26;;;;;;;;;;;2.90;99.90;;;;;;5015001;28;19925;-87
2023/03/07 08:53:51;;;;;;;;;;;3.00;99.90;;;;;;4996191;28;20304;-86
2023/03/07 08:56:17;;;;;;;;;;;5.50;99.90;;;;;;5000805;28;19934;-89
2023/03/07 08:58:43;;;;;;;;;;;6.50;99.90;;;;;;4998774;28;20223;-89
2023/03/07 09:01:09;;;;;;;;;;;6.50;99.90;;;;;;5004742;28;19952;-82
2023/03/07 09:03:35;;;;;;;;;;;3.90;99.90;;;;;;5002623;28;20296;-87
2023/03/07 09:06:01;;;;;;;;;;;6.40;99.90;;;;;;5013841;28;19951;-89
2023/03/07 09:08:27;;;;;;;;;;;3.80;99.90;;;;;;5013043;28;19929;-85
2023/03/07 09:10:52;;;;;;;;;;;3.80;99.90;;;;;;5011628;28;19933;-86
2023/03/07 09:13:18;;;;;;;;;;;5.30;99.90;;;;;;4995913;28;19925;-86
2023/03/07 09:15:43;;;;;;;;;;;5.90;99.90;;;;;;4996100;28;19979;-88
2023/03/07 09:18:09;;;;;;;;;;;3.90;99.90;;;;;;5012885;28;19926;-87
2023/03/07 09:20:38;;;;;;;;;;;4.00;99.90;;;;;;4999332;28;19985;-90
2023/03/07 09:23:04;;;;;;;;;;;4.20;99.90;;;;;;5000816;28;20027;-89
2023/03/07 09:25:29;;;;;;;;;;;4.30;99.90;;;;;;5022551;28;19991;-91
2023/03/07 09:27:55;;;;;;;;;;;5.20;99.90;;;;;;5004697;28;19949;-89
2023/03/07 09:30:21;;;;;;;;;;;5.90;99.90;;;;;;4996281;28;19933;-89
2023/03/07 09:32:47;;;;;;;;;;;4.70;99.90;;;;;;5000578;28;19926;-89
2023/03/07 09:35:13;;;;;;;;;;;6.10;99.90;;;;;;5021213;28;20403;-83
2023/03/07 09:37:38;;;;;;;;;;;7.50;99.90;;;;;;5020937;28;20088;-79
2023/03/07 09:40:06;;;;;;;;;;;6.70;99.90;;;;;;4999516;28;19922;-85
2023/03/07 09:42:39;;;;;;;;;;;5.00;99.90;;;;;;5003952;28;19933;-83
2023/03/07 09:45:07;;;;;;;;;;;4.70;99.90;;;;;;4996469;28;20365;-83
2023/03/07 09:47:54;;;;;;;;;;;4.50;99.90;;;;;;5005432;28;20320;-82
2023/03/07 09:50:28;;;;;;;;;;;4.30;99.90;;;;;;5024987;28;19925;-81
2023/03/07 09:52:57;;;;;;;;;;;4.00;99.90;;;;;;5004120;28;20381;-82
2023/03/07 09:55:23;;;;;;;;;;;5.20;99.90;;;;;;4999743;28;20008;-79
2023/03/07 09:57:56;;;;;;;;;;;3.80;99.90;;;;;;5023749;28;19994;-79
2023/03/07 10:00:22;;;;;;;;;;;3.60;99.90;;;;;;4998138;28;19926;-80
2023/03/07 10:02:50;;;;;;;;;;;3.90;99.90;;;;;;5017009;28;19929;-82
2023/03/07 10:05:30;;;;;;;;;;;4.50;99.90;;;;;;5012829;28;19926;-85
2023/03/07 10:07:56;;;;;;;;;;;4.50;99.90;;;;;;4994016;28;19929;-85
2023/03/07 10:10:23;;;;;;;;;;;6.40;99.90;;;;;;5020134;28;19952;-85
2023/03/07 10:12:52;;;;;;;;;;;6.10;99.90;;;;;;5012522;28;19995;-86
2023/03/07 10:15:17;;;;;;;;;;;6.30;99.90;;;;;;5010895;28;20480;-86
2023/03/07 10:18:04;;;;;;;;;;;8.10;99.90;;;;;;4994060;28;20008;-81
2023/03/07 10:20:39;;;;;;;;;;;7.10;99.90;;;;;;5014840;28;20022;-82
2023/03/07 10:23:07;;;;;;;;;;;7.70;99.90;;;;;;5003773;28;19925;-77
2023/03/07 10:25:38;;;;;;;;;;;8.10;99.90;;;;;;5020332;28;19926;-83
2023/03/07 10:28:22;;;;;;;;;;;8.50;99.90;;;;;;4998849;28;20005;-78
2023/03/07 10:30:49;;;;;;;;;;;9.70;99.90;;;;;;4994893;28;19992;-79
2023/03/07 10:33:21;;;;;;;;;;;11.10;99.90;;;;;;4994223;28;19925;-79
2023/03/07 10:35:53;;;;;;;;;;;12.00;99.90;;;;;;5000614;28;19932;-75
2023/03/07 10:38:25;;;;;;;;;;;12.80;98.80;;;;;;4989263;28;19926;-74
2023/03/07 10:41:00;;;;;;;;;;;13.60;95.70;;;;;;4992091;28;19926;-83
2023/03/07 10:43:28;;;;;;;;;;;13.40;96.20;;;;;;4990802;28;20398;-78
2023/03/07 10:46:09;;;;;;;;;;;13.20;96.20;;;;;;4988527;28;19926;-78
2023/03/07 10:48:36;;;;;;;;;;;13.10;96.30;;;;;;4988097;28;19932;-77
2023/03/07 10:51:20;;;;;;;;;;;14.10;92.10;;;;;;4992461;28;20008;-78
2023/03/07 10:53:46;;;;;;;;;;;15.40;92.10;;;;;;4994170;28;19925;-77
2023/03/07 10:56:11;;;;;;;;;;;16.10;87.90;;;;;;5002722;28;19926;-77
2023/03/07 10:58:37;;;;;;;;;;;16.60;85.80;;;;;;4999691;28;19937;-79
2023/03/07 11:01:06;;;;;;;;;;;17.30;86.20;;;;;;4993831;28;19930;-77
2023/03/07 11:03:38;;;;;;;;;;;17.80;82.00;;;;;;4992176;28;19948;-80
2023/03/07 11:06:04;;;;;;;;;;;18.50;78.10;;;;;;4998871;28;20318;-83
2023/03/07 11:08:31;;;;;;;;;;;17.90;78.10;;;;;;4987390;28;20415;-85
2023/03/07 11:10:58;;;;;;;;;;;16.80;81.30;;;;;;5000548;28;19933;-80
2023/03/07 11:13:23;;;;;;;;;;;15.40;79.60;;;;;;4998575;28;20376;-80
2023/03/07 11:16:08;;;;;;;;;;;14.90;82.90;;;;;;5000442;28;19926;-83
2023/03/07 11:18:39;;;;;;;;;;;15.30;82.60;;;;;;5000237;28;19926;-83
2023/03/07 11:21:04;;;;;;;;;;;15.80;79.00;;;;;;5002300;28;19933;-83
2023/03/07 11:23:30;;;;;;;;;;;16.50;80.90;;;;;;5009033;28;19929;-81
2023/03/07 11:26:12;;;;;;;;;;;17.50;80.60;;;;;;5004442;28;19926;-82
2023/03/07 11:28:38;;;;;;;;;;;18.10;75.80;;;;;;4993160;28;19936;-79
2023/03/07 11:31:16;;;;;;;;;;;18.40;73.00;;;;;;5002677;28;19936;-78
2023/03/07 11:33:54;;;;;;;;;;;18.40;72.50;;;;;;4997640;28;19925;-80
2023/03/07 11:36:26;;;;;;;;;;;18.30;74.00;;;;;;5005943;28;20292;-79
2023/03/07 11:39:03;;;;;;;;;;;18.20;72.30;;;;;;5001187;28;19926;-81
2023/03/07 11:41:36;;;;;;;;;;;17.90;73.00;;;;;;5005341;28;19926;-77
2023/03/07 11:44:21;;;;;;;;;;;17.20;72.40;;;;;;5004358;28;19929;-80
2023/03/07 11:46:53;;;;;;;;;;;17.00;73.30;;;;;;4997638;28;19925;-79
2023/03/07 11:49:21;;;;;;;;;;;17.10;75.30;;;;;;4996518;28;20012;-78
2023/03/07 11:51:53;;;;;;;;;;;17.70;72.90;;;;;;4992120;28;19936;-82
2023/03/07 11:54:37;;;;;;;;;;;18.10;73.30;;;;;;4996001;28;19985;-81
2023/03/07 11:57:12;;;;;;;;;;;18.50;68.60;;;;;;4994016;28;19948;-82
2023/03/07 11:59:47;;;;;;;;;;;17.30;70.50;;;;;;4991722;28;19926;-81
2023/03/07 12:02:28;;;;;;;;;;;16.60;76.30;;;;;;4996364;28;19993;-82
2023/03/07 12:05:00;;;;;;;;;;;16.00;74.30;;;;;;4994624;28;19968;-82
2023/03/07 12:07:49;;;;;;;;;;;14.70;77.10;;;;;;4994915;28;19932;-81
2023/03/07 12:10:15;;;;;;;;;;;13.40;79.70;;;;;;4985270;28;19926;-82
2023/03/07 12:12:43;;;;;;;;;;;12.30;82.40;;;;;;4994009;28;19929;-81
2023/03/07 12:15:24;;;;;;;;;;;11.40;83.90;;;;;;4996376;28;20020;-81
2023/03/07 12:18:03;;;;;;;;;;;10.70;86.80;;;;;;4992548;28;19977;-81
2023/03/07 12:20:32;;;;;;;;;;;11.00;88.80;;;;;;4991130;28;20417;-82
2023/03/07 12:23:17;;;;;;;;;;;11.90;91.00;;;;;;4990920;28;19933;-80
2023/03/07 12:25:49;;;;;;;;;;;14.00;87.90;;;;;;4996384;28;19953;-84
2023/03/07 12:28:14;;;;;;;;;;;15.80;82.50;;;;;;4997910;28;20413;-84
2023/03/07 12:30:40;;;;;;;;;;;17.10;82.90;;;;;;5003093;28;19977;-83
2023/03/07 12:33:05;;;;;;;;;;;17.30;78.10;;;;;;5005194;28;19933;-81
2023/03/07 12:35:38;;;;;;;;;;;17.00;74.70;;;;;;5001334;28;19926;-80
2023/03/07 12:38:11;;;;;;;;;;;15.60;77.40;;;;;;5005532;28;20259;-82
2023/03/07 12:40:37;;;;;;;;;;;13.90;77.50;;;;;;5002123;28;19926;-80
2023/03/07 12:43:16;;;;;;;;;;;12.40;79.10;;;;;;4994746;28;20024;-80
2023/03/07 12:45:46;;;;;;;;;;;12.10;84.10;;;;;;5001844;28;19925;-80
2023/03/07 12:48:36;;;;;;;;;;;12.40;80.70;;;;;;4993967;28;19934;-81
2023/03/07 12:51:06;;;;;;;;;;;13.60;80.70;;;;;;4997425;28;20266;-81
2023/03/07 12:53:31;;;;;;;;;;;14.30;78.90;;;;;;5002050;28;19922;-82
2023/03/07 12:56:09;;;;;;;;;;;14.70;78.30;;;;;;4993030;28;19926;-81
2023/03/07 12:58:41;;;;;;;;;;;14.20;74.00;;;;;;4992163;28;20294;-84
2023/03/07 13:01:25;;;;;;;;;;;14.30;78.80;;;;;;4993078;28;19926;-83
2023/03/07 13:04:04;;;;;;;;;;;15.20;78.20;;;;;;4996092;28;19932;-86
2023/03/07 13:06:31;;;;;;;;;;;15.90;75.20;;;;;;4999244;28;19933;-82
2023/03/07 13:08:58;;;;;;;;;;;15.80;73.70;;;;;;4999305;28;19926;-81
2023/03/07 13:11:25;;;;;;;;;;;16.10;76.30;;;;;;4997806;28;19941;-80
2023/03/07 13:13:50;;;;;;;;;;;16.50;74.70;;;;;;4998292;28;19926;-77
2023/03/07 13:16:36;;;;;;;;;;;15.90;72.90;;;;;;5000288;28;19988;-77
2023/03/07 13:19:20;;;;;;;;;;;15.80;73.50;;;;;;4999832;28;20389;-80
2023/03/07 13:21:46;;;;;;;;;;;14.80;74.60;;;;;;4998534;28;19933;-82
2023/03/07 13:24:30;;;;;;;;;;;14.10;75.50;;;;;;4995903;28;20297;-81
2023/03/07 13:26:55;;;;;;;;;;;13.40;77.10;;;;;;4991683;28;19964;-80
2023/03/07 13:29:40;;;;;;;;;;;12.10;79.60;;;;;;4993549;28;19989;-78
2023/03/07 13:32:25;;;;;;;;;;;11.60;82.60;;;;;;4998438;28;20436;-78
2023/03/07 13:34:51;;;;;;;;;;;11.10;85.20;;;;;;4990723;28;19933;-82
2023/03/07 13:37:35;;;;;;;;;;;10.90;85.30;;;;;;4996796;28;19926;-89
2023/03/07 13:40:05;;;;;;;;;;;11.00;84.80;;;;;;4993648;28;19930;-82
2023/03/07 13:42:47;;;;;;;;;;;11.70;84.60;;;;;;5002797;28;20337;-79
2023/03/07 13:45:31;;;;;;;;;;;11.80;84.90;;;;;;4992959;28;20358;-81
2023/03/07 13:47:56;;;;;;;;;;;11.40;83.80;;;;;;4999548;28;19926;-83
2023/03/07 13:50:34;;;;;;;;;;;11.30;85.90;;;;;;5003883;28;20270;-85
2023/03/07 13:53:14;;;;;;;;;;;11.30;86.20;;;;;;5004821;28;19925;-83
2023/03/07 13:55:45;;;;;;;;;;;11.10;87.00;;;;;;4997105;28;19960;-82
2023/03/07 13:58:15;;;;;;;;;;;10.80;89.60;;;;;;4987043;28;20004;-81
2023/03/07 14:00:48;;;;;;;;;;;10.60;89.20;;;;;;4996573;28;19926;-81
2023/03/07 14:03:19;;;;;;;;;;;11.40;89.20;;;;;;4992809;28;19929;-78
2023/03/07 14:05:45;;;;;;;;;;;10.40;89.70;;;;;;5000554;28;20358;-80
2023/03/07 14:08:12;;;;;;;;;;;9.90;87.50;;;;;;5002713;28;19926;-79
2023/03/07 14:10:40;;;;;;;;;;;11.10;90.10;;;;;;4997790;28;19933;-81
2023/03/07 14:13:14;;;;;;;;;;;10.10;94.70;;;;;;5000106;28;19925;-85
2023/03/07 14:15:40;;;;;;;;;;;9.40;96.20;;;;;;4989595;28;19926;-86
2023/03/07 14:18:21;;;;;;;;;;;9.30;96.50;;;;;;4996109;28;19933;-81
2023/03/07 14:20:51;;;;;;;;;;;9.30;96.00;;;;;;4994137;28;19979;-78
2023/03/07 14:23:17;;;;;;;;;;;9.40;96.30;;;;;;4992577;28;19976;-76
2023/03/07 14:25:47;;;;;;;;;;;8.70;97.40;;;;;;4994221;28;19972;-76
2023/03/07 14:28:22;;;;;;;;;;;9.60;97.00;;;;;;4984979;28;19980;-77
2023/03/07 14:30:58;;;;;;;;;;;8.50;97.30;;;;;;4993583;28;19930;-75
2023/03/07 14:33:34;;;;;;;;;;;8.10;98.90;;;;;;4996158;28;19925;-75